Time;durP1;ratioP1;P1;durP2;ratioP2;P2;SDS_P1;SDS_P2;PMS_P1;PMS_P2;Temp;Humidity;BMP_temperature;BMP_pressure;BME280_temperature;BME280_humidity;BME280_pressure;Samples;Min_cycle;Max_cycle;Signal;HPM_P1;HPM_P2
2021/03/19 00:00:34;;;;;;;5.60;2.45;;;;;;;4.16;53.87;98318.41;10457160;28;20402;-51
2021/03/19 00:05:36;;;;;;;5.47;2.45;;;;;;;4.17;53.70;98309.66;10457946;28;20056;-50
2021/03/19 00:10:38;;;;;;;6.65;3.10;;;;;;;4.20;53.40;98317.22;10461404;28;20056;-50
2021/03/19 00:15:40;;;;;;;6.72;2.78;;;;;;;4.12;53.34;98309.19;10458327;28;20421;-51
2021/03/19 00:20:45;;;;;;;5.00;2.67;;;;;;;3.98;53.11;98314.69;10464342;28;20060;-52
2021/03/19 00:25:47;;;;;;;5.85;2.28;;;;;;;3.80;54.07;98320.41;10539921;28;20059;-51
2021/03/19 00:30:49;;;;;;;4.60;2.08;;;;;;;3.72;54.42;98321.94;10540296;28;20063;-52
2021/03/19 00:35:51;;;;;;;6.82;2.88;;;;;;;3.67;53.87;98317.94;10539956;28;20385;-52
2021/03/19 00:40:53;;;;;;;5.80;2.63;;;;;;;3.71;53.66;98322.91;10542130;28;20066;-53
2021/03/19 00:45:55;;;;;;;7.43;3.00;;;;;;;3.69;53.98;98321.25;10539366;28;20040;-52
2021/03/19 00:50:57;;;;;;;6.03;2.72;;;;;;;3.71;53.69;98318.53;10538887;28;20048;-51
2021/03/19 00:55:59;;;;;;;6.68;3.03;;;;;;;3.71;54.12;98328.09;10539014;28;20100;-50
2021/03/19 01:01:01;;;;;;;7.72;3.60;;;;;;;3.75;53.95;98319.09;10539647;28;20075;-54
2021/03/19 01:06:03;;;;;;;6.70;2.90;;;;;;;3.83;53.77;98329.72;10539928;28;20063;-51
2021/03/19 01:11:05;;;;;;;8.33;3.20;;;;;;;3.86;53.39;98321.69;10544620;28;20105;-51
2021/03/19 01:16:07;;;;;;;7.30;3.70;;;;;;;3.84;53.80;98323.56;10547900;28;20040;-53
2021/03/19 01:21:11;;;;;;;7.22;3.95;;;;;;;3.94;53.45;98324.50;10552420;28;20060;-54
2021/03/19 01:26:14;;;;;;;7.32;3.63;;;;;;;3.98;53.28;98328.50;10551325;28;20147;-52
2021/03/19 01:31:16;;;;;;;6.72;3.47;;;;;;;3.98;53.00;98325.91;10547919;28;20040;-50
2021/03/19 01:36:19;;;;;;;7.18;3.70;;;;;;;3.97;53.25;98324.25;10545463;28;20048;-56
2021/03/19 01:41:21;;;;;;;12.68;5.15;;;;;;;4.00;52.72;98329.19;10547017;28;20052;-52
2021/03/19 01:46:59;;;;;;;9.95;4.78;;;;;;;3.99;52.91;98327.56;10545553;28;20104;-50
2021/03/19 01:52:38;;;;;;;10.88;4.65;;;;;;;3.97;52.77;98331.22;10545800;28;20460;-52
2021/03/19 01:58:17;;;;;;;10.32;5.43;;;;;;;3.88;53.15;98343.22;10544534;28;20109;-51
2021/03/19 02:03:56;;;;;;;8.30;4.88;;;;;;;4.03;53.16;98344.56;10544742;28;20056;-50
2021/03/19 02:09:35;;;;;;;12.38;5.65;;;;;;;4.09;52.66;98348.44;10544626;28;20051;-52
2021/03/19 02:15:14;;;;;;;9.32;4.63;;;;;;;4.08;52.67;98358.03;10546203;28;20481;-50
2021/03/19 02:20:52;;;;;;;9.93;5.18;;;;;;;4.10;52.87;98356.13;10544643;28;20133;-53
2021/03/19 02:26:31;;;;;;;8.68;4.55;;;;;;;4.15;52.71;98347.94;10544752;28;20044;-50
2021/03/19 02:31:54;;;;;;;9.48;4.80;;;;;;;4.00;53.15;98350.00;10544560;28;20451;-51
2021/03/19 02:36:56;;;;;;;8.88;4.50;;;;;;;3.91;53.21;98356.78;10543398;28;20086;-51
2021/03/19 02:42:00;;;;;;;10.30;5.10;;;;;;;3.93;53.11;98356.66;10542417;28;20507;-50
2021/03/19 02:47:03;;;;;;;8.25;3.85;;;;;;;4.01;52.87;98363.84;10543269;28;20043;-52
2021/03/19 02:52:05;;;;;;;9.27;4.73;;;;;;;3.91;52.79;98361.16;10545081;28;20090;-55
2021/03/19 02:57:07;;;;;;;10.10;4.47;;;;;;;3.84;52.59;98370.38;10543084;28;20650;-56
2021/03/19 03:02:09;;;;;;;7.68;3.70;;;;;;;3.75;52.27;98373.69;10543621;28;20055;-50
2021/03/19 03:07:20;;;;;;;10.80;4.85;;;;;;;3.64;52.77;98372.75;10544443;28;20048;-52
2021/03/19 03:12:23;;;;;;;7.57;3.60;;;;;;;3.68;52.51;98376.78;10542986;28;20384;-55
2021/03/19 03:17:25;;;;;;;8.10;3.60;;;;;;;3.75;52.36;98382.31;10545576;28;20444;-51
2021/03/19 03:22:27;;;;;;;10.25;3.47;;;;;;;3.83;52.24;98379.94;10541849;28;20373;-50
2021/03/19 03:27:28;;;;;;;7.28;3.80;;;;;;;3.83;52.09;98379.13;10515848;28;20052;-53
2021/03/19 03:32:31;;;;;;;7.38;3.78;;;;;;;3.80;51.64;98385.38;10539688;28;20073;-57
2021/03/19 03:37:33;;;;;;;7.97;3.15;;;;;;;3.78;51.82;98384.66;10541188;28;20058;-50
2021/03/19 03:42:35;;;;;;;7.80;2.95;;;;;;;3.84;51.75;98388.56;10541141;28;20047;-52
2021/03/19 03:47:38;;;;;;;7.45;3.55;;;;;;;3.89;51.41;98396.84;10540309;28;20078;-50
2021/03/19 03:52:40;;;;;;;8.00;4.03;;;;;;;3.87;51.50;98396.94;10540263;28;20098;-50
2021/03/19 03:57:42;;;;;;;8.65;4.15;;;;;;;3.93;51.38;98395.66;10540222;28;20095;-51
2021/03/19 04:02:44;;;;;;;9.98;4.50;;;;;;;3.86;52.16;98404.88;10546092;28;20085;-61
2021/03/19 04:07:46;;;;;;;9.27;4.60;;;;;;;3.82;51.95;98411.28;10542896;28;20060;-53
2021/03/19 04:12:48;;;;;;;8.77;4.40;;;;;;;3.84;51.86;98407.59;10540063;28;20048;-52
2021/03/19 04:17:55;;;;;;;9.77;3.95;;;;;;;3.60;51.84;98415.53;10539416;28;20480;-52
2021/03/19 04:22:57;;;;;;;6.03;3.28;;;;;;;3.59;52.21;98419.06;10538253;28;20052;-52
2021/03/19 04:28:01;;;;;;;9.05;3.20;;;;;;;3.60;51.62;98417.28;10539752;28;20056;-50
2021/03/19 04:33:05;;;;;;;6.38;3.15;;;;;;;3.64;52.03;98416.94;10542994;28;20097;-55
2021/03/19 04:38:11;;;;;;;10.85;3.50;;;;;;;3.73;51.41;98427.59;10541100;28;20078;-51
2021/03/19 04:43:14;;;;;;;8.63;3.65;;;;;;;3.81;51.60;98427.78;10540026;28;20044;-49
2021/03/19 04:48:17;;;;;;;8.10;3.70;;;;;;;3.85;51.26;98432.66;10547910;28;20052;-50
2021/03/19 04:53:18;;;;;;;7.30;3.42;;;;;;;3.91;50.99;98439.16;10547708;28;20100;-52
2021/03/19 04:58:20;;;;;;;10.07;4.07;;;;;;;4.00;51.36;98445.38;10547759;28;20453;-55
2021/03/19 05:03:22;;;;;;;12.10;4.43;;;;;;;4.00;50.84;98448.00;10547162;28;20044;-51
2021/03/19 05:08:24;;;;;;;9.77;2.85;;;;;;;3.98;51.29;98449.91;10507599;28;20475;-55
2021/03/19 05:13:26;;;;;;;7.22;3.35;;;;;;;4.02;50.91;98440.91;10508809;28;20420;-53
2021/03/19 05:18:28;;;;;;;8.25;3.28;;;;;;;4.25;51.01;98447.72;10486978;28;20075;-51
2021/03/19 05:23:33;;;;;;;8.43;3.03;;;;;;;4.34;50.32;98448.75;10512119;28;20425;-50
2021/03/19 05:28:35;;;;;;;8.90;2.90;;;;;;;4.30;50.90;98457.75;10545499;28;20048;-52
2021/03/19 05:33:44;;;;;;;6.40;2.95;;;;;;;4.56;50.58;98460.91;10546107;28;20399;-51
2021/03/19 05:38:45;;;;;;;7.47;3.22;;;;;;;4.59;50.53;98461.47;10545948;28;20575;-52
2021/03/19 05:43:50;;;;;;;6.30;3.00;;;;;;;4.59;49.86;98461.47;10542994;28;20385;-52
2021/03/19 05:48:57;;;;;;;6.22;2.97;;;;;;;4.65;50.23;98469.72;10547430;28;20117;-53
2021/03/19 05:54:06;;;;;;;6.97;3.25;;;;;;;4.89;50.10;98472.94;10545785;28;20044;-53
2021/03/19 05:59:07;;;;;;;8.32;3.47;;;;;;;5.17;49.16;98471.53;10545403;28;20052;-52
2021/03/19 06:04:20;;;;;;;8.68;3.85;;;;;;;5.38;48.86;98478.50;10550241;28;20063;-55
2021/03/19 06:09:28;;;;;;;8.35;4.47;;;;;;;5.57;49.05;98483.00;10548765;28;20090;-51
2021/03/19 06:14:39;;;;;;;7.90;4.60;;;;;;;5.80;48.21;98484.50;10547503;28;20040;-52
2021/03/19 06:19:51;;;;;;;8.70;4.00;;;;;;;5.74;48.12;98487.63;10547403;28;20442;-51
2021/03/19 06:24:57;;;;;;;8.95;4.35;;;;;;;5.81;47.80;98493.97;10546112;28;20066;-51
2021/03/19 06:30:01;;;;;;;7.35;4.38;;;;;;;6.08;48.43;98490.81;10546425;28;20067;-56
2021/03/19 06:35:22;;;;;;;11.35;4.22;;;;;;;6.23;47.44;98497.34;10546322;28;20044;-51
2021/03/19 06:40:34;;;;;;;8.27;3.88;;;;;;;6.52;46.91;98495.75;10545653;28;20111;-53
2021/03/19 06:45:36;;;;;;;9.82;4.88;;;;;;;6.57;47.08;98499.63;10545402;28;20477;-51
2021/03/19 06:50:40;;;;;;;8.20;4.38;;;;;;;6.88;46.20;98505.56;10544490;28;20364;-52
2021/03/19 06:55:45;;;;;;;7.63;4.45;;;;;;;7.12;45.53;98504.34;10545324;28;20055;-52
2021/03/19 07:00:47;;;;;;;8.13;3.58;;;;;;;7.17;45.13;98509.97;10546858;28;20064;-56
2021/03/19 07:06:22;;;;;;;6.35;3.20;;;;;;;7.05;44.48;98503.22;10545979;28;20134;-52
2021/03/19 07:11:37;;;;;;;6.80;3.27;;;;;;;7.27;44.88;98504.75;10550091;28;20048;-52
2021/03/19 07:16:53;;;;;;;8.45;3.35;;;;;;;7.89;43.49;98513.03;10546172;28;20059;-53
2021/03/19 07:22:06;;;;;;;8.75;3.63;;;;;;;8.01;42.82;98523.16;10549959;28;20062;-55
2021/03/19 07:27:25;;;;;;;6.50;3.47;;;;;;;8.53;41.54;98512.22;10552154;28;20063;-57
2021/03/19 07:33:01;;;;;;;7.53;3.30;;;;;;;8.69;41.25;98517.63;10548190;28;20488;-51
2021/03/19 07:38:33;;;;;;;7.75;3.92;;;;;;;9.41;41.44;98518.44;10544027;28;20101;-53
2021/03/19 07:43:46;;;;;;;9.45;3.50;;;;;;;10.06;39.75;98523.28;10544871;28;20064;-53
2021/03/19 07:49:02;;;;;;;6.80;3.50;;;;;;;9.84;40.14;98529.88;10543750;28;20052;-51
2021/03/19 07:54:14;;;;;;;8.88;4.03;;;;;;;10.43;38.90;98519.53;10542849;28;20040;-52
2021/03/19 07:59:23;;;;;;;6.50;3.42;;;;;;;10.56;38.90;98526.97;10543733;28;20043;-53
2021/03/19 08:04:36;;;;;;;6.70;3.08;;;;;;;11.20;38.39;98533.34;10542665;28;20400;-52
2021/03/19 08:09:45;;;;;;;6.35;3.03;;;;;;;11.94;37.51;98518.34;10542965;28;20051;-53
2021/03/19 08:15:24;;;;;;;7.13;2.70;;;;;;;12.59;36.09;98521.75;10543960;28;20055;-52
2021/03/19 08:20:36;;;;;;;6.72;2.67;;;;;;;12.53;35.52;98528.53;10550048;28;20116;-52
2021/03/19 08:25:42;;;;;;;7.45;3.33;;;;;;;12.86;35.67;98531.81;10546802;28;20048;-52
2021/03/19 08:30:52;;;;;;;5.00;2.50;;;;;;;13.71;34.55;98538.00;10542460;28;20101;-53
2021/03/19 08:36:01;;;;;;;4.88;2.38;;;;;;;14.47;33.52;98541.28;10540522;28;20059;-52
2021/03/19 08:41:09;;;;;;;7.68;3.20;;;;;;;14.67;32.65;98542.41;10540885;28;20048;-52
2021/03/19 08:46:17;;;;;;;7.05;2.58;;;;;;;14.25;31.73;98548.31;10541145;28;20365;-52
2021/03/19 08:51:36;;;;;;;6.20;2.53;;;;;;;14.07;32.64;98551.34;10539849;28;20083;-52
2021/03/19 08:56:43;;;;;;;4.88;2.40;;;;;;;14.08;32.33;98558.25;10540068;28;20095;-55
2021/03/19 09:01:52;;;;;;;9.05;3.35;;;;;;;14.45;30.87;98560.00;10540511;28;20530;-52
2021/03/19 09:07:24;;;;;;;5.32;2.92;;;;;;;14.83;30.48;98556.41;10541022;28;20036;-53
2021/03/19 09:12:28;;;;;;;5.65;2.53;;;;;;;15.92;29.80;98562.38;10542514;28;20469;-53
2021/03/19 09:17:54;;;;;;;5.95;3.13;;;;;;;17.58;27.66;98554.25;10541329;28;20059;-52
2021/03/19 09:23:22;;;;;;;5.47;2.80;;;;;;;19.21;25.21;98555.13;10544401;28;20330;-64
2021/03/19 09:28:51;;;;;;;5.57;2.80;;;;;;;20.89;23.94;98554.19;10542008;28;20146;-53
2021/03/19 09:34:10;;;;;;;8.18;3.63;;;;;;;22.35;23.11;98558.31;10546108;28;20108;-53
2021/03/19 09:39:45;;;;;;;5.47;3.35;;;;;;;23.23;21.34;98549.09;10538303;28;20056;-53
2021/03/19 09:44:49;;;;;;;6.90;3.67;;;;;;;21.95;20.19;98556.31;10552244;28;20048;-54
2021/03/19 09:50:06;;;;;;;7.38;3.20;;;;;;;19.11;23.06;98557.41;10548319;28;20361;-53
2021/03/19 09:55:17;;;;;;;6.25;3.28;;;;;;;16.57;24.46;98555.81;10546860;28;20048;-52
2021/03/19 10:00:23;;;;;;;8.82;3.17;;;;;;;14.78;25.80;98558.78;10547120;28;20093;-52
2021/03/19 10:05:37;;;;;;;6.40;3.70;;;;;;;13.58;26.20;98562.38;10547162;28;20052;-52
2021/03/19 10:10:41;;;;;;;6.10;3.22;;;;;;;12.63;27.32;98567.88;10550395;28;20051;-52
2021/03/19 10:15:45;;;;;;;6.70;3.33;;;;;;;12.23;28.07;98576.75;10550962;28;20077;-53
2021/03/19 10:20:53;;;;;;;8.82;3.90;;;;;;;11.94;28.26;98578.91;10547476;28;20082;-53
2021/03/19 10:26:07;;;;;;;7.90;3.42;;;;;;;11.69;27.92;98577.28;10545473;28;20055;-52
2021/03/19 10:31:14;;;;;;;5.97;2.97;;;;;;;11.44;28.33;98574.63;10547162;28;20146;-52
2021/03/19 10:36:19;;;;;;;7.57;3.10;;;;;;;11.21;28.56;98576.28;10546612;28;20155;-53
2021/03/19 10:41:27;;;;;;;6.55;3.28;;;;;;;11.02;28.65;98585.25;10545186;28;20059;-51
2021/03/19 10:46:39;;;;;;;5.50;2.53;;;;;;;11.09;28.72;98593.34;10547997;28;20050;-52
2021/03/19 10:51:45;;;;;;;5.80;2.70;;;;;;;10.94;29.16;98582.63;10552016;28;20113;-51
2021/03/19 10:56:50;;;;;;;6.15;2.50;;;;;;;10.83;29.50;98584.53;10555083;28;20054;-51
2021/03/19 11:01:53;;;;;;;8.65;2.85;;;;;;;10.35;29.77;98604.41;10553622;28;20094;-57
2021/03/19 11:06:55;;;;;;;6.40;3.17;;;;;;;10.09;29.92;98614.03;10545458;28;20044;-53
2021/03/19 11:11:59;;;;;;;4.97;2.30;;;;;;;9.81;30.10;98610.75;10544175;28;20052;-51
2021/03/19 11:17:18;;;;;;;7.35;2.20;;;;;;;9.69;30.21;98610.97;10545122;28;20063;-51
2021/03/19 11:22:20;;;;;;;6.47;2.88;;;;;;;9.50;30.48;98605.91;10545732;28;20056;-53
2021/03/19 11:27:24;;;;;;;6.55;2.38;;;;;;;9.47;30.46;98608.81;10544452;28;20048;-54
2021/03/19 11:32:34;;;;;;;5.45;2.95;;;;;;;9.64;30.98;98613.25;10544091;28;20056;-52
2021/03/19 11:37:40;;;;;;;5.78;2.15;;;;;;;10.01;30.23;98620.09;10543742;28;20514;-52
2021/03/19 11:42:44;;;;;;;7.95;2.10;;;;;;;10.14;30.27;98607.34;10546417;28;20052;-52
2021/03/19 11:47:54;;;;;;;5.10;1.90;;;;;;;9.91;29.77;98622.81;10543590;28;20051;-51
2021/03/19 11:52:57;;;;;;;5.75;1.90;;;;;;;10.03;29.81;98622.53;10503486;28;20048;-52
2021/03/19 11:57:59;;;;;;;;;;;;;;;10.17;29.92;98621.16;10504602;28;20063;-52
2021/03/19 12:03:05;;;;;;;4.18;1.63;;;;;;;10.30;29.74;98618.97;10505309;28;19924;-52
2021/03/19 12:08:07;;;;;;;5.47;2.17;;;;;;;9.98;29.13;98628.28;10499747;28;20063;-51
2021/03/19 12:13:14;;;;;;;4.93;1.95;;;;;;;9.54;29.24;98617.72;10500173;28;20093;-52
2021/03/19 12:18:18;;;;;;;7.40;2.63;;;;;;;9.30;29.53;98628.84;10500206;28;20063;-51
2021/03/19 12:23:20;;;;;;;6.60;2.30;;;;;;;9.30;29.89;98620.97;10499869;28;20067;-53
2021/03/19 12:28:23;;;;;;;4.55;2.17;;;;;;;8.81;30.18;98645.81;10500853;28;20051;-52
2021/03/19 12:33:30;;;;;;;5.80;2.45;;;;;;;8.56;30.67;98639.41;10499959;28;20040;-53
2021/03/19 12:38:32;;;;;;;5.32;2.40;;;;;;;8.59;30.82;98642.59;10501099;28;20048;-51
2021/03/19 12:43:33;;;;;;;6.45;2.50;;;;;;;8.58;30.67;98640.94;10506342;28;20044;-52
2021/03/19 12:48:36;;;;;;;4.90;2.00;;;;;;;8.46;30.86;98649.94;10509353;28;20106;-51
2021/03/19 12:53:38;;;;;;;5.90;1.92;;;;;;;8.32;30.93;98642.53;10500405;28;20045;-51
2021/03/19 12:58:39;;;;;;;7.30;2.60;;;;;;;8.23;31.11;98645.03;10499784;28;20465;-52
2021/03/19 13:03:44;;;;;;;7.10;2.22;;;;;;;8.19;30.91;98645.44;10499397;28;20048;-52
2021/03/19 13:08:46;;;;;;;4.40;2.08;;;;;;;8.16;30.83;98646.56;10507770;28;20117;-51
2021/03/19 13:13:48;;;;;;;7.53;2.65;;;;;;;8.23;31.09;98642.41;10508209;28;20094;-51
2021/03/19 13:18:50;;;;;;;7.22;2.30;;;;;;;8.22;31.33;98648.63;10507935;28;20140;-52
2021/03/19 13:23:52;;;;;;;5.47;2.80;;;;;;;8.21;31.23;98649.56;10508974;28;20087;-53
2021/03/19 13:28:54;;;;;;;6.20;1.70;;;;;;;8.10;31.53;98657.59;10507960;28;20173;-52
2021/03/19 13:33:57;;;;;;;5.72;2.15;;;;;;;7.60;30.86;98644.66;10507087;28;20083;-51
2021/03/19 13:38:58;;;;;;;6.30;1.90;;;;;;;7.24;31.41;98633.94;10506644;28;20473;-52
2021/03/19 13:44:00;;;;;;;4.55;1.83;;;;;;;7.14;32.25;98643.53;10507164;28;20048;-51
2021/03/19 13:49:03;;;;;;;4.68;2.33;;;;;;;7.00;32.10;98646.53;10508963;28;20055;-53
2021/03/19 13:54:05;;;;;;;8.93;2.53;;;;;;;6.77;32.23;98651.94;10507308;28;20385;-53
2021/03/19 13:59:07;;;;;;;5.35;2.10;;;;;;;6.64;32.45;98662.63;10506151;28;20114;-52
2021/03/19 14:04:10;;;;;;;6.07;1.80;;;;;;;6.48;32.09;98664.06;10507199;28;20051;-53
2021/03/19 14:09:12;;;;;;;4.47;1.60;;;;;;;6.36;31.90;98663.31;10505518;28;20068;-52
2021/03/19 14:14:14;;;;;;;4.93;2.25;;;;;;;6.41;32.63;98666.38;10505342;28;20056;-51
2021/03/19 14:19:16;;;;;;;3.97;1.60;;;;;;;6.41;32.15;98655.94;10503143;28;20082;-52
2021/03/19 14:24:18;;;;;;;7.13;2.20;;;;;;;6.12;32.11;98660.97;10504562;28;20067;-51
2021/03/19 14:29:19;;;;;;;6.30;1.95;;;;;;;5.93;32.79;98664.28;10504913;28;20071;-51
2021/03/19 14:34:23;;;;;;;5.28;2.10;;;;;;;5.88;32.68;98656.84;10509916;28;20057;-55
2021/03/19 14:39:25;;;;;;;5.20;2.10;;;;;;;5.78;33.07;98659.34;10508201;28;20113;-53
2021/03/19 14:44:27;;;;;;;6.43;2.30;;;;;;;5.68;33.31;98655.03;10504897;28;20044;-52
2021/03/19 14:49:29;;;;;;;5.00;2.00;;;;;;;5.58;32.85;98661.94;10503667;28;20116;-51
2021/03/19 14:54:31;;;;;;;6.53;2.38;;;;;;;5.42;33.15;98678.81;10503818;28;20059;-52
2021/03/19 14:59:33;;;;;;;6.18;1.90;;;;;;;5.30;33.73;98674.59;10503983;28;20054;-58
2021/03/19 15:04:35;;;;;;;5.32;1.98;;;;;;;5.22;33.58;98676.97;10517659;28;20051;-56
2021/03/19 15:09:37;;;;;;;5.32;2.45;;;;;;;5.16;34.12;98680.06;10533417;28;20058;-54
2021/03/19 15:14:38;;;;;;;8.13;2.63;;;;;;;5.07;34.22;98697.25;10546175;28;20039;-52
2021/03/19 15:19:41;;;;;;;8.15;2.65;;;;;;;4.94;34.22;98705.19;10516387;28;20040;-53
2021/03/19 15:24:42;;;;;;;11.13;2.80;;;;;;;4.74;34.81;98704.16;10501869;28;20057;-57
2021/03/19 15:29:45;;;;;;;5.63;2.50;;;;;;;4.65;34.83;98698.78;10500361;28;20485;-52
2021/03/19 15:34:48;;;;;;;6.78;1.83;;;;;;;4.51;35.19;98698.09;10501925;28;20070;-52
2021/03/19 15:39:49;;;;;;;5.68;2.00;;;;;;;4.40;34.94;98708.47;10515197;28;20052;-53
2021/03/19 15:44:51;;;;;;;4.65;1.80;;;;;;;4.33;35.24;98709.88;10507397;28;20056;-57
2021/03/19 15:49:54;;;;;;;4.93;2.10;;;;;;;4.33;35.66;98718.50;10524990;28;20047;-51
2021/03/19 15:54:55;;;;;;;6.05;2.42;;;;;;;4.42;35.63;98722.19;10543067;28;20060;-51
2021/03/19 15:59:57;;;;;;;6.00;2.70;;;;;;;4.47;35.10;98734.88;10543279;28;20059;-52
2021/03/19 16:05:01;;;;;;;7.93;2.65;;;;;;;4.39;35.34;98735.44;10541418;28;20101;-50
2021/03/19 16:10:04;;;;;;;6.90;2.25;;;;;;;4.43;35.89;98739.47;10501740;28;20139;-50
2021/03/19 16:15:08;;;;;;;8.20;3.10;;;;;;;4.33;35.51;98741.94;10500422;28;20420;-51
2021/03/19 16:20:11;;;;;;;5.83;2.20;;;;;;;4.22;35.95;98746.28;10500675;28;20071;-52
2021/03/19 16:25:13;;;;;;;;;;;;;;;4.10;35.69;98754.06;10499739;28;20429;-52
2021/03/19 16:30:21;;;;;;;6.70;2.28;;;;;;;4.01;36.01;98759.13;10499225;28;19989;-51
2021/03/19 16:35:26;;;;;;;6.65;2.30;;;;;;;3.99;36.31;98759.22;10500176;28;20131;-50
2021/03/19 16:40:30;;;;;;;8.45;2.20;;;;;;;4.05;35.92;98761.34;10504004;28;20093;-51
2021/03/19 16:45:33;;;;;;;5.60;2.53;;;;;;;4.10;35.73;98769.66;10495533;28;20053;-52
2021/03/19 16:50:36;;;;;;;4.90;1.70;;;;;;;4.10;35.94;98772.25;10531892;28;20052;-52
2021/03/19 16:55:39;;;;;;;5.30;2.03;;;;;;;4.20;35.35;98771.59;10535495;28;20070;-52
2021/03/19 17:00:42;;;;;;;5.38;2.47;;;;;;;4.22;35.93;98790.50;10503528;28;20056;-50
2021/03/19 17:05:45;;;;;;;4.97;1.83;;;;;;;4.34;35.73;98787.00;10498808;28;20052;-52
2021/03/19 17:10:47;;;;;;;9.65;2.50;;;;;;;4.33;35.74;98787.94;10509190;28;20492;-51
2021/03/19 17:15:49;;;;;;;5.32;2.20;;;;;;;4.34;35.75;98787.84;10541301;28;20052;-53
2021/03/19 17:20:53;;;;;;;5.93;1.85;;;;;;;4.31;35.55;98792.41;10541747;28;20060;-51
2021/03/19 17:25:55;;;;;;;7.10;2.65;;;;;;;4.24;35.69;98801.63;10540672;28;20066;-51
2021/03/19 17:30:58;;;;;;;9.75;2.75;;;;;;;4.07;35.94;98798.50;10541798;28;20056;-59
2021/03/19 17:36:01;;;;;;;8.13;3.10;;;;;;;3.84;36.61;98807.13;10542282;28;20044;-58
2021/03/19 17:41:05;;;;;;;9.25;2.90;;;;;;;3.57;37.24;98800.38;10535529;28;20446;-51
2021/03/19 17:46:07;;;;;;;;;;;;;;;3.35;37.80;98801.03;10521617;28;20036;-51
2021/03/19 17:51:12;;;;;;;11.27;4.35;;;;;;;3.11;38.14;98816.56;10535978;28;19967;-52
2021/03/19 17:56:18;;;;;;;8.15;2.72;;;;;;;2.93;39.14;98820.41;10546204;28;20372;-51
2021/03/19 18:01:22;;;;;;;6.68;2.55;;;;;;;2.68;39.14;98816.00;10538349;28;20083;-51
2021/03/19 18:06:24;;;;;;;5.55;2.50;;;;;;;2.54;39.95;98816.94;10532766;28;20036;-52
2021/03/19 18:11:26;;;;;;;6.05;2.35;;;;;;;2.37;40.08;98822.41;10552086;28;20492;-52
2021/03/19 18:16:28;;;;;;;6.60;2.28;;;;;;;2.25;40.70;98817.13;10549186;28;20377;-53
2021/03/19 18:21:34;;;;;;;7.10;3.30;;;;;;;2.21;40.77;98813.03;10547019;28;20067;-50
2021/03/19 18:26:36;;;;;;;8.63;3.10;;;;;;;2.13;40.89;98817.91;10546689;28;20101;-51
2021/03/19 18:31:38;;;;;;;6.32;2.92;;;;;;;2.04;40.74;98821.09;10546259;28;20392;-51
2021/03/19 18:36:40;;;;;;;7.07;2.90;;;;;;;2.02;40.92;98833.31;10546092;28;20430;-56
2021/03/19 18:41:42;;;;;;;7.28;2.90;;;;;;;1.98;40.91;98837.03;10516056;28;20056;-50
2021/03/19 18:46:44;;;;;;;9.15;3.78;;;;;;;2.00;40.99;98838.59;10505892;28;20439;-51
2021/03/19 18:51:47;;;;;;;8.35;3.40;;;;;;;2.10;41.21;98840.63;10504950;28;20048;-50
2021/03/19 18:56:48;;;;;;;6.57;2.60;;;;;;;2.09;42.55;98839.75;10502956;28;20044;-50
2021/03/19 19:01:50;;;;;;;9.30;3.40;;;;;;;2.10;42.51;98843.19;10503134;28;20135;-51
2021/03/19 19:06:54;;;;;;;8.73;3.53;;;;;;;2.19;42.39;98852.97;10503468;28;20055;-51
2021/03/19 19:11:56;;;;;;;7.38;2.90;;;;;;;2.23;42.40;98847.50;10502430;28;20052;-50
2021/03/19 19:16:59;;;;;;;7.80;3.17;;;;;;;2.21;42.73;98851.94;10509510;28;20055;-55
2021/03/19 19:22:01;;;;;;;7.60;3.38;;;;;;;2.35;43.02;98858.00;10506283;28;20052;-51
2021/03/19 19:27:03;;;;;;;7.78;3.05;;;;;;;2.47;43.28;98862.41;10502156;28;20440;-50
2021/03/19 19:32:06;;;;;;;7.47;3.30;;;;;;;2.38;43.86;98855.22;10501928;28;20063;-51
2021/03/19 19:37:08;;;;;;;7.20;2.97;;;;;;;2.36;44.85;98851.88;10502461;28;20050;-50
2021/03/19 19:42:10;;;;;;;9.15;3.92;;;;;;;2.37;44.79;98869.09;10501625;28;20135;-51
2021/03/19 19:47:12;;;;;;;8.52;4.18;;;;;;;2.40;44.73;98863.72;10501428;28;20086;-50
2021/03/19 19:52:14;;;;;;;8.98;3.45;;;;;;;2.53;44.82;98862.00;10501010;28;20461;-51
2021/03/19 19:57:16;;;;;;;9.75;3.85;;;;;;;2.59;45.00;98863.38;10501321;28;20131;-51
2021/03/19 20:02:17;;;;;;;8.50;3.60;;;;;;;2.62;45.23;98857.97;10501174;28;20522;-51
2021/03/19 20:07:20;;;;;;;8.07;3.70;;;;;;;2.55;44.92;98862.72;10500307;28;20052;-52
2021/03/19 20:12:21;;;;;;;8.85;3.72;;;;;;;2.54;45.50;98872.25;10503248;28;20049;-52
2021/03/19 20:17:23;;;;;;;5.68;2.78;;;;;;;2.53;45.21;98880.16;10499928;28;20420;-51
2021/03/19 20:22:26;;;;;;;7.90;3.83;;;;;;;2.41;45.16;98866.22;10499404;28;20084;-51
2021/03/19 20:27:27;;;;;;;12.18;3.70;;;;;;;2.36;45.98;98870.88;10500020;28;20048;-50
2021/03/19 20:32:29;;;;;;;8.70;3.05;;;;;;;2.34;45.53;98853.72;10501589;28;20102;-52
2021/03/19 20:37:31;;;;;;;7.10;3.42;;;;;;;2.30;45.79;98874.69;10500281;28;20439;-50
2021/03/19 20:42:36;;;;;;;35.15;10.18;;;;;;;2.21;45.98;98877.03;10500036;28;20076;-57
2021/03/19 20:47:42;;;;;;;8.20;3.30;;;;;;;2.21;45.70;98879.63;10498733;28;20154;-50
2021/03/19 20:52:45;;;;;;;12.18;3.15;;;;;;;2.29;45.95;98867.84;10499820;28;20048;-51
2021/03/19 20:57:47;;;;;;;6.80;3.03;;;;;;;2.20;46.03;98871.03;10499642;28;20056;-52
2021/03/19 21:02:48;;;;;;;9.45;3.45;;;;;;;2.08;45.62;98870.03;10499655;28;20052;-50
2021/03/19 21:07:51;;;;;;;13.18;5.53;;;;;;;1.97;45.97;98876.81;10499139;28;20477;-51
2021/03/19 21:12:53;;;;;;;8.18;3.97;;;;;;;1.93;45.63;98880.56;10500055;28;20452;-51
2021/03/19 21:17:54;;;;;;;10.68;4.53;;;;;;;1.90;45.62;98880.75;10498921;28;20101;-51
2021/03/19 21:22:57;;;;;;;9.18;3.88;;;;;;;1.92;45.70;98873.72;10498938;28;20061;-52
2021/03/19 21:27:59;;;;;;;6.35;3.38;;;;;;;1.94;45.21;98890.84;10504388;28;20055;-51
2021/03/19 21:33:01;;;;;;;8.77;3.35;;;;;;;1.84;45.61;98881.94;10506608;28;20131;-51
2021/03/19 21:38:04;;;;;;;5.88;2.42;;;;;;;1.66;45.72;98873.56;10506294;28;20036;-51
2021/03/19 21:43:05;;;;;;;9.90;3.97;;;;;;;1.49;45.79;98886.72;10507121;28;20048;-54
2021/03/19 21:48:11;;;;;;;9.13;4.05;;;;;;;1.38;45.91;98887.38;10505782;28;20499;-50
2021/03/19 21:53:15;;;;;;;9.00;3.75;;;;;;;1.36;46.35;98892.66;10505851;28;20060;-51
2021/03/19 21:58:18;;;;;;;8.73;3.88;;;;;;;1.34;45.69;98894.50;10506237;28;20045;-51
2021/03/19 22:03:19;;;;;;;9.20;3.30;;;;;;;1.35;45.27;98895.31;10505315;28;20122;-50
2021/03/19 22:08:31;;;;;;;8.80;3.83;;;;;;;1.24;45.98;98898.56;10517033;28;20045;-55
2021/03/19 22:13:33;;;;;;;12.98;4.28;;;;;;;1.18;46.05;98895.53;10511976;28;20105;-50
2021/03/19 22:18:36;;;;;;;7.82;2.88;;;;;;;1.13;45.94;98899.19;10512187;28;20051;-52
2021/03/19 22:23:39;;;;;;;8.50;4.15;;;;;;;1.03;45.77;98900.66;10508623;28;20060;-52
2021/03/19 22:28:41;;;;;;;8.70;3.65;;;;;;;0.97;45.95;98905.38;10505448;28;20072;-51
2021/03/19 22:33:43;;;;;;;6.53;2.90;;;;;;;0.98;46.00;98910.44;10504889;28;20389;-52
2021/03/19 22:38:46;;;;;;;8.23;3.67;;;;;;;0.98;45.61;98912.22;10509040;28;20074;-51
2021/03/19 22:43:47;;;;;;;12.43;4.53;;;;;;;0.95;45.38;98907.22;10504306;28;20063;-52
2021/03/19 22:48:51;;;;;;;6.22;3.83;;;;;;;0.88;46.07;98915.34;10503876;28;20473;-53
2021/03/19 22:53:53;;;;;;;11.38;4.18;;;;;;;0.80;45.82;98919.28;10504432;28;20427;-51
2021/03/19 22:58:57;;;;;;;8.20;3.70;;;;;;;0.76;46.29;98923.81;10503782;28;20041;-51
2021/03/19 23:04:01;;;;;;;10.43;4.25;;;;;;;0.72;46.38;98919.72;10502189;28;20052;-50
2021/03/19 23:09:08;;;;;;;11.30;4.32;;;;;;;0.65;45.75;98924.44;10503216;28;20059;-51
2021/03/19 23:14:10;;;;;;;10.27;4.25;;;;;;;0.62;46.08;98936.72;10503240;28;20091;-51
2021/03/19 23:19:13;;;;;;;7.82;3.38;;;;;;;0.56;46.04;98934.47;10501937;28;20070;-51
2021/03/19 23:24:18;;;;;;;10.10;3.28;;;;;;;0.44;46.17;98944.56;10502670;28;20382;-52
2021/03/19 23:29:23;;;;;;;8.93;3.35;;;;;;;0.38;46.69;98944.09;10503159;28;20074;-53
2021/03/19 23:34:26;;;;;;;9.73;3.47;;;;;;;0.32;46.54;98953.00;10502909;28;20090;-51
2021/03/19 23:39:31;;;;;;;9.07;4.32;;;;;;;0.30;46.45;98956.59;10502562;28;20057;-51
2021/03/19 23:44:33;;;;;;;8.90;4.18;;;;;;;0.27;46.34;98949.84;10504568;28;20135;-50
2021/03/19 23:49:34;;;;;;;8.02;2.60;;;;;;;0.25;46.18;98953.41;10501653;28;20045;-50
2021/03/19 23:54:37;;;;;;;9.23;3.42;;;;;;;0.22;46.26;98960.44;10500919;28;20044;-50